Terminal Aerodrome Forecast
Issued by NWS

Home | Current Version | Previous Version | Text Only | Print | Product List | Glossary On
Versions: 1 2 3 4 5 6 7 8 9 10 11 12
000
FTUS43 KICT 041126
TAFRSL
TAF
KRSL 041126Z 0412/0512 17015G22KT P6SM VCSH BKN120
     FM041500 18019G27KT P6SM SCT120
     FM050100 16015G22KT P6SM BKN120=

USA.gov is the U.S. government's official web portal to all federal, state and local government web resources and services.